Flight Track Log - Related Links

Times and Time Zones

All times are in EDT time to prevent confusion due to time zone crossing. See the N450S flight status page for this flight to view local times or setup timezone preferences in your user account.

Time Position Orientation Groundspeed Altitude Reporting Facility
EDT Latitude Longitude Course Direction KTS MPH feet Rate Location/Type
Wed 02:10:50 PM 35.6150 -86.4397 North 262 302 3,400  Level Memphis Center
Wed 02:11:50 PM 35.6567 -86.4428 357° North 192 221 4,800 1,750 Climbing Memphis Center
Wed 02:12:50 PM 35.7089 -86.4378 North 177 204 6,900 1,850 Climbing Memphis Center
Wed 02:13:50 PM 35.7486 -86.4408 356° North 167 192 8,500 1,050 Climbing Memphis Center
Wed 02:14:50 PM 35.8025 -86.4383 North 173 199 9,000 250 Climbing Memphis Center
Wed 02:15:50 PM 35.8694 -86.4403 359° North 217 250 9,000 750 Level Memphis Center
Wed 02:16:00 PM 35.8736 -86.4310 North  Level FlightAware Approximate
Wed 02:16:50 PM 35.9339 -86.4397 360° North 235 270 10,500  Level Memphis Center
Wed 02:17:50 PM 35.9917 -86.4164 18° North 220 253 10,900 200 Climbing Memphis Center
Wed 02:18:50 PM 36.0556 -86.3956 15° North 225 259 10,900 50 Level Memphis Center
Wed 02:19:50 PM 36.1197 -86.3769 13° North 231 266 11,000  Climbing Memphis Center
Wed 02:20:50 PM 36.1842 -86.3764 360° North 231 266 10,900 -50 Descending Memphis Center
Wed 02:21:51 PM 36.2533 -86.3808 357° North 236 272 10,900 -150 Level Memphis Center
Wed 02:22:50 PM 36.3264 -86.3847 358° North 236 272 10,600 -555 Descending Memphis Center
Wed 02:23:50 PM 36.3994 -86.3889 357° North 283 326 9,800 -850 Descending Memphis Center
Wed 02:24:50 PM 36.4725 -86.3931 357° North 285 328 8,900 -900 Descending Memphis Center
Wed 02:25:50 PM 36.5436 -86.3975 357° North 268 308 8,000 -1,000 Descending Memphis Center
Wed 02:26:50 PM 36.6144 -86.4017 357° North 255 293 6,900 -1,150 Descending Memphis Center
Wed 02:27:50 PM 36.6833 -86.4008 North 255 293 5,700 -1,250 Descending Memphis Center
Wed 02:28:50 PM 36.7522 -86.4078 355° North 249 287 4,400 -1,300 Descending Memphis Center

Login

Don't have an account? Register now (free) for customized features, flight alerts, and more!